ROTAER D-AMDT 39/19 Ver Mudanças

João Durval Carneiro ( SDIY ) / FEIRA DE SANTANA, BA 12 12 02S/038 54 02W
AD PUB Governo do Estado 15NE UTC-3 VFR L21 , L26 239 (784)

13 - L12 - ( 1500x30 ASPH 30/F/A/X/T L14 , L15 ) - L12 - 31

SBRE (CINDACTA 3)
CMB- [1] PF TF RFFS - [2] CAT - 5

RMK -

INFORMAÇÃO METEOROLÓGICA FORNECIDA
  1. Estação de Radiodifusão Automática de Aeródromo (ERAA) FREQ 132.350MHZ.
  2. Usar código de localidade SDIY para acessar METAR/SPECI na REDEMET.
ESPAÇO AÉREO ATS
  1. OBS ACFT em voo de instrução próximo ao AD
PROCEDIMENTOS DE VOO
  1. OPS noturnas AVBL O/R DLY 1100-2000 pelos TEL: (75) 3625-1667, 3625-3758, 3625-3359, 3625-5213
COMPL -
  • [1] O/R através dos TEL: (71) 8845-9536, (71) 8674-2649.DLY 1100-2100
  • [2] (SUN 1200-2000)
TEMP (0)

Suplementos AIP (0)

NOTAM (2)

AGA

Z0367/19 N 16/05/2019 00:05
COMBATE DE INCENDIO E SALVAMENTO CAT 5 RETIRADO
REF: ROTAER DIGITAL


NAV

B1725/19 R B1724/19 19/11/2019 23:18
AREA RESTRITA TEMPORARIAMENTE (VOO LIVRE) BTN COORD 120715.40S/0390619.54W,
115612.78S/0390558.07W, 120154.00S/0390131.49W, 120634.00S/0390219.13W ACT


Nascer/Por do Sol

08:36

21:02


METAR

201400Z AUTO 14006KT 090V190 9999 FEW035 31/22 Q1013=

TAF

Não disponível


Cartas (0)


Rotas Preferenciais (0)